sensor_id;sensor_type;location;lat;lon;timestamp;temperature;humidity
31675;DHT22;18276;45.520;11.018;2023-05-07T00:01:55;18.10;81.70
31675;DHT22;18276;45.520;11.018;2023-05-07T00:04:22;18.10;81.70
31675;DHT22;18276;45.520;11.018;2023-05-07T00:06:49;18.10;81.70
31675;DHT22;18276;45.520;11.018;2023-05-07T00:09:16;18.10;81.80
31675;DHT22;18276;45.520;11.018;2023-05-07T00:11:43;18.10;81.80
31675;DHT22;18276;45.520;11.018;2023-05-07T00:14:10;18.20;81.90
31675;DHT22;18276;45.520;11.018;2023-05-07T00:16:37;18.10;82.00
31675;DHT22;18276;45.520;11.018;2023-05-07T00:19:04;18.10;82.00
31675;DHT22;18276;45.520;11.018;2023-05-07T00:21:31;18.10;82.00
31675;DHT22;18276;45.520;11.018;2023-05-07T00:23:58;18.20;81.90
31675;DHT22;18276;45.520;11.018;2023-05-07T00:26:24;18.20;81.90
31675;DHT22;18276;45.520;11.018;2023-05-07T00:28:52;18.20;81.90
31675;DHT22;18276;45.520;11.018;2023-05-07T00:31:18;18.20;81.90
31675;DHT22;18276;45.520;11.018;2023-05-07T00:33:45;18.20;81.90
31675;DHT22;18276;45.520;11.018;2023-05-07T00:36:13;18.20;81.90
31675;DHT22;18276;45.520;11.018;2023-05-07T00:38:40;18.20;81.90
31675;DHT22;18276;45.520;11.018;2023-05-07T00:41:07;18.30;81.90
31675;DHT22;18276;45.520;11.018;2023-05-07T00:43:34;18.30;81.90
31675;DHT22;18276;45.520;11.018;2023-05-07T00:46:01;18.30;81.80
31675;DHT22;18276;45.520;11.018;2023-05-07T00:48:28;18.30;81.80
31675;DHT22;18276;45.520;11.018;2023-05-07T00:50:54;18.30;81.90
31675;DHT22;18276;45.520;11.018;2023-05-07T00:53:21;18.30;81.90
31675;DHT22;18276;45.520;11.018;2023-05-07T00:55:48;18.20;81.80
31675;DHT22;18276;45.520;11.018;2023-05-07T00:58:16;18.30;81.90
31675;DHT22;18276;45.520;11.018;2023-05-07T01:00:43;18.20;81.90
31675;DHT22;18276;45.520;11.018;2023-05-07T01:03:10;18.20;81.90
31675;DHT22;18276;45.520;11.018;2023-05-07T01:05:37;18.30;82.00
31675;DHT22;18276;45.520;11.018;2023-05-07T01:08:05;18.20;82.00
31675;DHT22;18276;45.520;11.018;2023-05-07T01:10:32;18.20;82.10
31675;DHT22;18276;45.520;11.018;2023-05-07T01:12:59;18.20;82.10
31675;DHT22;18276;45.520;11.018;2023-05-07T01:15:27;18.20;82.20
31675;DHT22;18276;45.520;11.018;2023-05-07T01:17:55;18.20;82.10
31675;DHT22;18276;45.520;11.018;2023-05-07T01:20:29;18.20;82.20
31675;DHT22;18276;45.520;11.018;2023-05-07T01:22:56;18.20;82.30
31675;DHT22;18276;45.520;11.018;2023-05-07T01:25:24;18.20;82.40
31675;DHT22;18276;45.520;11.018;2023-05-07T01:27:55;18.20;82.40
31675;DHT22;18276;45.520;11.018;2023-05-07T01:30:26;18.20;82.50
31675;DHT22;18276;45.520;11.018;2023-05-07T01:32:58;18.20;82.60
31675;DHT22;18276;45.520;11.018;2023-05-07T01:35:29;18.10;82.60
31675;DHT22;18276;45.520;11.018;2023-05-07T01:37:57;18.10;82.70
31675;DHT22;18276;45.520;11.018;2023-05-07T01:40:24;18.10;82.80
31675;DHT22;18276;45.520;11.018;2023-05-07T01:42:51;18.10;83.00
31675;DHT22;18276;45.520;11.018;2023-05-07T01:45:18;18.10;83.20
31675;DHT22;18276;45.520;11.018;2023-05-07T01:47:45;18.10;84.00
31675;DHT22;18276;45.520;11.018;2023-05-07T01:50:12;18.00;83.30
31675;DHT22;18276;45.520;11.018;2023-05-07T01:52:41;18.00;83.30
31675;DHT22;18276;45.520;11.018;2023-05-07T01:55:08;18.00;83.40
31675;DHT22;18276;45.520;11.018;2023-05-07T01:57:35;18.00;83.40
31675;DHT22;18276;45.520;11.018;2023-05-07T02:00:02;18.00;83.50
31675;DHT22;18276;45.520;11.018;2023-05-07T02:02:40;18.00;83.60
31675;DHT22;18276;45.520;11.018;2023-05-07T02:05:16;18.00;83.60
31675;DHT22;18276;45.520;11.018;2023-05-07T02:07:49;18.00;83.80
31675;DHT22;18276;45.520;11.018;2023-05-07T02:10:17;17.90;83.80
31675;DHT22;18276;45.520;11.018;2023-05-07T02:12:43;17.90;83.90
31675;DHT22;18276;45.520;11.018;2023-05-07T02:15:11;17.90;84.10
31675;DHT22;18276;45.520;11.018;2023-05-07T02:17:39;17.90;84.10
31675;DHT22;18276;45.520;11.018;2023-05-07T02:20:24;17.90;84.30
31675;DHT22;18276;45.520;11.018;2023-05-07T02:22:51;17.90;84.40
31675;DHT22;18276;45.520;11.018;2023-05-07T02:25:18;17.90;84.60
31675;DHT22;18276;45.520;11.018;2023-05-07T02:27:45;17.90;84.70
31675;DHT22;18276;45.520;11.018;2023-05-07T02:30:14;17.80;84.80
31675;DHT22;18276;45.520;11.018;2023-05-07T02:32:41;17.80;84.90
31675;DHT22;18276;45.520;11.018;2023-05-07T02:35:08;17.80;85.00
31675;DHT22;18276;45.520;11.018;2023-05-07T02:37:35;17.80;85.90
31675;DHT22;18276;45.520;11.018;2023-05-07T02:40:02;17.80;85.20
31675;DHT22;18276;45.520;11.018;2023-05-07T02:42:30;17.80;85.30
31675;DHT22;18276;45.520;11.018;2023-05-07T02:44:58;17.80;85.30
31675;DHT22;18276;45.520;11.018;2023-05-07T02:47:25;17.80;85.40
31675;DHT22;18276;45.520;11.018;2023-05-07T02:49:56;17.80;85.50
31675;DHT22;18276;45.520;11.018;2023-05-07T02:52:23;17.80;85.50
31675;DHT22;18276;45.520;11.018;2023-05-07T02:54:50;17.80;85.50
31675;DHT22;18276;45.520;11.018;2023-05-07T02:57:17;17.80;85.60
31675;DHT22;18276;45.520;11.018;2023-05-07T02:59:44;17.80;85.70
31675;DHT22;18276;45.520;11.018;2023-05-07T03:02:13;17.80;85.80
31675;DHT22;18276;45.520;11.018;2023-05-07T03:04:40;17.80;85.80
31675;DHT22;18276;45.520;11.018;2023-05-07T03:07:07;17.70;85.90
31675;DHT22;18276;45.520;11.018;2023-05-07T03:09:34;17.70;85.90
31675;DHT22;18276;45.520;11.018;2023-05-07T03:12:01;17.70;86.00
31675;DHT22;18276;45.520;11.018;2023-05-07T03:14:28;17.70;86.10
31675;DHT22;18276;45.520;11.018;2023-05-07T03:16:55;17.80;86.20
31675;DHT22;18276;45.520;11.018;2023-05-07T03:19:22;17.70;86.20
31675;DHT22;18276;45.520;11.018;2023-05-07T03:21:49;17.70;86.20
31675;DHT22;18276;45.520;11.018;2023-05-07T03:24:16;17.70;86.20
31675;DHT22;18276;45.520;11.018;2023-05-07T03:26:43;17.70;86.20
31675;DHT22;18276;45.520;11.018;2023-05-07T03:29:10;17.70;86.20
31675;DHT22;18276;45.520;11.018;2023-05-07T03:31:37;17.70;86.30
31675;DHT22;18276;45.520;11.018;2023-05-07T03:34:04;17.70;86.40
31675;DHT22;18276;45.520;11.018;2023-05-07T03:36:31;17.70;86.50
31675;DHT22;18276;45.520;11.018;2023-05-07T03:38:58;17.70;86.60
31675;DHT22;18276;45.520;11.018;2023-05-07T03:41:33;17.70;86.80
31675;DHT22;18276;45.520;11.018;2023-05-07T03:44:00;17.60;86.80
31675;DHT22;18276;45.520;11.018;2023-05-07T03:46:27;17.60;87.00
31675;DHT22;18276;45.520;11.018;2023-05-07T03:48:55;17.60;87.30
31675;DHT22;18276;45.520;11.018;2023-05-07T03:51:22;17.60;87.70
31675;DHT22;18276;45.520;11.018;2023-05-07T03:53:49;17.60;88.00
31675;DHT22;18276;45.520;11.018;2023-05-07T03:56:16;17.50;88.10
31675;DHT22;18276;45.520;11.018;2023-05-07T03:58:47;17.60;88.30
31675;DHT22;18276;45.520;11.018;2023-05-07T04:01:14;17.50;88.50
31675;DHT22;18276;45.520;11.018;2023-05-07T04:03:42;17.50;88.70
31675;DHT22;18276;45.520;11.018;2023-05-07T04:06:09;17.50;88.80
31675;DHT22;18276;45.520;11.018;2023-05-07T04:08:36;17.50;89.00
31675;DHT22;18276;45.520;11.018;2023-05-07T04:11:04;17.50;89.20
31675;DHT22;18276;45.520;11.018;2023-05-07T04:13:33;17.50;89.40
31675;DHT22;18276;45.520;11.018;2023-05-07T04:16:02;17.50;89.30
31675;DHT22;18276;45.520;11.018;2023-05-07T04:18:31;17.60;89.30
31675;DHT22;18276;45.520;11.018;2023-05-07T04:20:58;17.60;89.10
31675;DHT22;18276;45.520;11.018;2023-05-07T04:23:25;17.70;89.00
31675;DHT22;18276;45.520;11.018;2023-05-07T04:25:53;17.80;88.90
31675;DHT22;18276;45.520;11.018;2023-05-07T04:28:26;17.80;88.80
31675;DHT22;18276;45.520;11.018;2023-05-07T04:30:53;17.90;88.70
31675;DHT22;18276;45.520;11.018;2023-05-07T04:33:21;17.90;88.50
31675;DHT22;18276;45.520;11.018;2023-05-07T04:35:49;17.90;88.40
31675;DHT22;18276;45.520;11.018;2023-05-07T04:38:16;18.00;88.30
31675;DHT22;18276;45.520;11.018;2023-05-07T04:40:47;18.00;88.20
31675;DHT22;18276;45.520;11.018;2023-05-07T04:43:18;18.10;88.10
31675;DHT22;18276;45.520;11.018;2023-05-07T04:45:52;18.10;87.90
31675;DHT22;18276;45.520;11.018;2023-05-07T04:48:22;18.20;87.80
31675;DHT22;18276;45.520;11.018;2023-05-07T04:50:51;18.30;87.50
31675;DHT22;18276;45.520;11.018;2023-05-07T04:53:19;18.30;87.30
31675;DHT22;18276;45.520;11.018;2023-05-07T04:55:47;18.50;87.00
31675;DHT22;18276;45.520;11.018;2023-05-07T04:58:14;18.60;86.60
31675;DHT22;18276;45.520;11.018;2023-05-07T05:00:44;18.80;86.10
31675;DHT22;18276;45.520;11.018;2023-05-07T05:03:11;19.00;85.30
31675;DHT22;18276;45.520;11.018;2023-05-07T05:05:39;19.30;84.50
31675;DHT22;18276;45.520;11.018;2023-05-07T05:08:06;19.50;83.60
31675;DHT22;18276;45.520;11.018;2023-05-07T05:10:37;19.80;82.80
31675;DHT22;18276;45.520;11.018;2023-05-07T05:13:05;20.00;81.90
31675;DHT22;18276;45.520;11.018;2023-05-07T05:15:32;20.10;81.10
31675;DHT22;18276;45.520;11.018;2023-05-07T05:18:01;20.00;80.80
31675;DHT22;18276;45.520;11.018;2023-05-07T05:20:29;20.20;80.80
31675;DHT22;18276;45.520;11.018;2023-05-07T05:22:57;20.30;80.10
31675;DHT22;18276;45.520;11.018;2023-05-07T05:25:24;20.40;79.50
31675;DHT22;18276;45.520;11.018;2023-05-07T05:27:51;20.60;79.20
31675;DHT22;18276;45.520;11.018;2023-05-07T05:30:18;20.90;78.50
31675;DHT22;18276;45.520;11.018;2023-05-07T05:32:47;21.20;77.30
31675;DHT22;18276;45.520;11.018;2023-05-07T05:35:14;21.60;76.20
31675;DHT22;18276;45.520;11.018;2023-05-07T05:37:43;21.80;74.90
31675;DHT22;18276;45.520;11.018;2023-05-07T05:40:10;22.10;73.50
31675;DHT22;18276;45.520;11.018;2023-05-07T05:42:37;22.20;72.70
31675;DHT22;18276;45.520;11.018;2023-05-07T05:45:04;22.00;72.60
31675;DHT22;18276;45.520;11.018;2023-05-07T05:47:33;21.80;73.20
31675;DHT22;18276;45.520;11.018;2023-05-07T05:50:00;21.60;73.90
31675;DHT22;18276;45.520;11.018;2023-05-07T05:52:27;21.50;74.10
31675;DHT22;18276;45.520;11.018;2023-05-07T05:54:55;21.60;74.40
31675;DHT22;18276;45.520;11.018;2023-05-07T05:57:22;22.00;73.90
31675;DHT22;18276;45.520;11.018;2023-05-07T05:59:51;22.50;72.60
31675;DHT22;18276;45.520;11.018;2023-05-07T06:02:18;22.60;71.60
31675;DHT22;18276;45.520;11.018;2023-05-07T06:04:45;22.60;71.30
31675;DHT22;18276;45.520;11.018;2023-05-07T06:07:17;22.60;71.30
31675;DHT22;18276;45.520;11.018;2023-05-07T06:09:44;22.40;71.50
31675;DHT22;18276;45.520;11.018;2023-05-07T06:12:12;22.40;71.90
31675;DHT22;18276;45.520;11.018;2023-05-07T06:14:43;22.90;72.00
31675;DHT22;18276;45.520;11.018;2023-05-07T06:17:11;23.70;70.20
31675;DHT22;18276;45.520;11.018;2023-05-07T06:19:38;24.50;69.00
31675;DHT22;18276;45.520;11.018;2023-05-07T06:22:06;25.10;65.90
31675;DHT22;18276;45.520;11.018;2023-05-07T06:24:34;25.60;63.80
31675;DHT22;18276;45.520;11.018;2023-05-07T06:27:01;26.10;62.20
31675;DHT22;18276;45.520;11.018;2023-05-07T06:29:29;26.50;60.80
31675;DHT22;18276;45.520;11.018;2023-05-07T06:32:10;26.80;59.50
31675;DHT22;18276;45.520;11.018;2023-05-07T06:34:41;27.40;58.30
31675;DHT22;18276;45.520;11.018;2023-05-07T06:37:08;28.00;57.00
31675;DHT22;18276;45.520;11.018;2023-05-07T06:40:01;28.40;54.60
31675;DHT22;18276;45.520;11.018;2023-05-07T06:42:30;28.70;53.20
31675;DHT22;18276;45.520;11.018;2023-05-07T06:45:04;28.90;52.40
31675;DHT22;18276;45.520;11.018;2023-05-07T06:47:31;29.10;51.80
31675;DHT22;18276;45.520;11.018;2023-05-07T06:49:58;29.20;50.20
31675;DHT22;18276;45.520;11.018;2023-05-07T06:52:29;28.60;51.00
31675;DHT22;18276;45.520;11.018;2023-05-07T06:54:56;28.00;50.20
31675;DHT22;18276;45.520;11.018;2023-05-07T06:57:25;27.50;51.50
31675;DHT22;18276;45.520;11.018;2023-05-07T06:59:52;27.10;52.90
31675;DHT22;18276;45.520;11.018;2023-05-07T07:02:19;26.90;53.60
31675;DHT22;18276;45.520;11.018;2023-05-07T07:04:48;26.80;53.90
31675;DHT22;18276;45.520;11.018;2023-05-07T07:07:15;26.60;53.60
31675;DHT22;18276;45.520;11.018;2023-05-07T07:09:45;26.50;54.20
31675;DHT22;18276;45.520;11.018;2023-05-07T07:12:14;26.00;54.60
31675;DHT22;18276;45.520;11.018;2023-05-07T07:14:42;25.70;55.60
31675;DHT22;18276;45.520;11.018;2023-05-07T07:17:09;25.40;56.40
31675;DHT22;18276;45.520;11.018;2023-05-07T07:19:36;25.20;56.80
31675;DHT22;18276;45.520;11.018;2023-05-07T07:22:03;25.20;57.00
31675;DHT22;18276;45.520;11.018;2023-05-07T07:24:31;25.70;56.60
31675;DHT22;18276;45.520;11.018;2023-05-07T07:27:01;26.50;55.10
31675;DHT22;18276;45.520;11.018;2023-05-07T07:29:30;27.50;53.20
31675;DHT22;18276;45.520;11.018;2023-05-07T07:31:57;28.30;51.60
31675;DHT22;18276;45.520;11.018;2023-05-07T07:34:24;28.80;49.90
31675;DHT22;18276;45.520;11.018;2023-05-07T07:36:51;29.00;49.30
31675;DHT22;18276;45.520;11.018;2023-05-07T07:39:18;28.70;49.50
31675;DHT22;18276;45.520;11.018;2023-05-07T07:41:49;28.20;50.60
31675;DHT22;18276;45.520;11.018;2023-05-07T07:44:18;27.60;51.40
31675;DHT22;18276;45.520;11.018;2023-05-07T07:46:50;27.20;52.40
31675;DHT22;18276;45.520;11.018;2023-05-07T07:49:19;26.60;53.90
31675;DHT22;18276;45.520;11.018;2023-05-07T07:51:46;26.30;54.70
31675;DHT22;18276;45.520;11.018;2023-05-07T07:54:13;26.20;55.30
31675;DHT22;18276;45.520;11.018;2023-05-07T07:56:41;26.20;55.60
31675;DHT22;18276;45.520;11.018;2023-05-07T07:59:09;26.20;55.20
31675;DHT22;18276;45.520;11.018;2023-05-07T08:01:39;26.20;55.20
31675;DHT22;18276;45.520;11.018;2023-05-07T08:04:07;26.50;55.00
31675;DHT22;18276;45.520;11.018;2023-05-07T08:06:38;26.70;54.50
31675;DHT22;18276;45.520;11.018;2023-05-07T08:09:07;27.00;53.30
31675;DHT22;18276;45.520;11.018;2023-05-07T08:11:36;27.20;52.20
31675;DHT22;18276;45.520;11.018;2023-05-07T08:14:04;27.50;52.30
31675;DHT22;18276;45.520;11.018;2023-05-07T08:16:31;27.70;51.40
31675;DHT22;18276;45.520;11.018;2023-05-07T08:19:00;27.70;50.00
31675;DHT22;18276;45.520;11.018;2023-05-07T08:21:27;27.90;49.10
31675;DHT22;18276;45.520;11.018;2023-05-07T08:23:54;28.00;48.60
31675;DHT22;18276;45.520;11.018;2023-05-07T08:26:21;28.30;48.60
31675;DHT22;18276;45.520;11.018;2023-05-07T08:28:48;28.50;48.10
31675;DHT22;18276;45.520;11.018;2023-05-07T08:31:14;28.60;47.90
31675;DHT22;18276;45.520;11.018;2023-05-07T08:33:44;28.80;47.80
31675;DHT22;18276;45.520;11.018;2023-05-07T08:36:11;29.00;47.80
31675;DHT22;18276;45.520;11.018;2023-05-07T08:38:38;29.30;47.70
31675;DHT22;18276;45.520;11.018;2023-05-07T08:41:08;29.50;47.30
31675;DHT22;18276;45.520;11.018;2023-05-07T08:43:37;29.60;46.90
31675;DHT22;18276;45.520;11.018;2023-05-07T08:46:05;29.10;47.10
31675;DHT22;18276;45.520;11.018;2023-05-07T08:48:38;28.50;48.00
31675;DHT22;18276;45.520;11.018;2023-05-07T08:51:15;28.00;48.70
31675;DHT22;18276;45.520;11.018;2023-05-07T08:53:42;27.70;49.20
31675;DHT22;18276;45.520;11.018;2023-05-07T08:56:12;27.50;49.60
31675;DHT22;18276;45.520;11.018;2023-05-07T08:58:40;27.60;49.80
31675;DHT22;18276;45.520;11.018;2023-05-07T09:01:07;27.90;49.00
31675;DHT22;18276;45.520;11.018;2023-05-07T09:03:39;28.10;48.70
31675;DHT22;18276;45.520;11.018;2023-05-07T09:06:06;28.20;48.00
31675;DHT22;18276;45.520;11.018;2023-05-07T09:08:33;28.10;47.60
31675;DHT22;18276;45.520;11.018;2023-05-07T09:11:02;28.20;47.20
31675;DHT22;18276;45.520;11.018;2023-05-07T09:13:30;28.60;45.30
31675;DHT22;18276;45.520;11.018;2023-05-07T09:15:59;29.10;45.20
31675;DHT22;18276;45.520;11.018;2023-05-07T09:18:26;29.40;45.10
31675;DHT22;18276;45.520;11.018;2023-05-07T09:20:54;29.70;44.60
31675;DHT22;18276;45.520;11.018;2023-05-07T09:23:21;29.80;44.60
31675;DHT22;18276;45.520;11.018;2023-05-07T09:25:48;30.10;44.20
31675;DHT22;18276;45.520;11.018;2023-05-07T09:28:25;30.60;43.20
31675;DHT22;18276;45.520;11.018;2023-05-07T09:30:52;30.90;42.70
31675;DHT22;18276;45.520;11.018;2023-05-07T09:33:20;31.70;42.00
31675;DHT22;18276;45.520;11.018;2023-05-07T09:35:52;32.20;40.80
31675;DHT22;18276;45.520;11.018;2023-05-07T09:38:20;32.50;40.00
31675;DHT22;18276;45.520;11.018;2023-05-07T09:41:01;33.10;39.20
31675;DHT22;18276;45.520;11.018;2023-05-07T09:43:34;33.20;38.20
31675;DHT22;18276;45.520;11.018;2023-05-07T09:46:03;32.40;39.00
31675;DHT22;18276;45.520;11.018;2023-05-07T09:48:40;31.50;40.20
31675;DHT22;18276;45.520;11.018;2023-05-07T09:51:15;31.20;41.20
31675;DHT22;18276;45.520;11.018;2023-05-07T09:53:44;30.90;41.50
31675;DHT22;18276;45.520;11.018;2023-05-07T09:56:13;30.80;42.10
31675;DHT22;18276;45.520;11.018;2023-05-07T09:58:42;31.20;41.70
31675;DHT22;18276;45.520;11.018;2023-05-07T10:01:11;31.70;40.70
31675;DHT22;18276;45.520;11.018;2023-05-07T10:03:41;32.20;40.30
31675;DHT22;18276;45.520;11.018;2023-05-07T10:06:09;32.70;39.50
31675;DHT22;18276;45.520;11.018;2023-05-07T10:08:37;32.70;39.60
31675;DHT22;18276;45.520;11.018;2023-05-07T10:11:06;32.90;38.80
31675;DHT22;18276;45.520;11.018;2023-05-07T10:13:33;32.60;39.20
31675;DHT22;18276;45.520;11.018;2023-05-07T10:16:03;32.60;39.40
31675;DHT22;18276;45.520;11.018;2023-05-07T10:18:35;32.50;39.60
31675;DHT22;18276;45.520;11.018;2023-05-07T10:21:11;32.30;39.80
31675;DHT22;18276;45.520;11.018;2023-05-07T10:23:38;31.90;40.30
31675;DHT22;18276;45.520;11.018;2023-05-07T10:26:07;31.90;40.60
31675;DHT22;18276;45.520;11.018;2023-05-07T10:28:40;31.80;41.10
31675;DHT22;18276;45.520;11.018;2023-05-07T10:31:15;32.00;41.20
31675;DHT22;18276;45.520;11.018;2023-05-07T10:33:46;32.20;40.80
31675;DHT22;18276;45.520;11.018;2023-05-07T10:36:17;32.20;40.60
31675;DHT22;18276;45.520;11.018;2023-05-07T10:38:45;32.30;41.10
31675;DHT22;18276;45.520;11.018;2023-05-07T10:41:13;33.10;40.70
31675;DHT22;18276;45.520;11.018;2023-05-07T10:43:43;33.60;39.40
31675;DHT22;18276;45.520;11.018;2023-05-07T10:46:22;33.80;39.10
31675;DHT22;18276;45.520;11.018;2023-05-07T10:52:11;33.90;39.50
31675;DHT22;18276;45.520;11.018;2023-05-07T10:54:45;34.50;38.50
31675;DHT22;18276;45.520;11.018;2023-05-07T11:00:48;34.20;38.40
31675;DHT22;18276;45.520;11.018;2023-05-07T11:03:07;34.10;38.70
31675;DHT22;18276;45.520;11.018;2023-05-07T11:08:57;34.40;38.50
31675;DHT22;18276;45.520;11.018;2023-05-07T11:11:48;34.40;38.00
31675;DHT22;18276;45.520;11.018;2023-05-07T11:17:11;34.70;38.30
31675;DHT22;18276;45.520;11.018;2023-05-07T11:19:51;34.90;37.80
31675;DHT22;18276;45.520;11.018;2023-05-07T11:22:56;35.20;37.20
31675;DHT22;18276;45.520;11.018;2023-05-07T11:25:33;35.30;36.70
31675;DHT22;18276;45.520;11.018;2023-05-07T11:28:15;35.30;36.50
31675;DHT22;18276;45.520;11.018;2023-05-07T11:30:50;35.20;37.30
31675;DHT22;18276;45.520;11.018;2023-05-07T11:33:19;35.30;37.20
31675;DHT22;18276;45.520;11.018;2023-05-07T11:35:49;35.40;36.70
31675;DHT22;18276;45.520;11.018;2023-05-07T11:38:19;35.30;37.00
31675;DHT22;18276;45.520;11.018;2023-05-07T11:43:20;35.60;36.60
31675;DHT22;18276;45.520;11.018;2023-05-07T11:45:47;35.40;36.20
31675;DHT22;18276;45.520;11.018;2023-05-07T11:48:15;35.30;36.90
31675;DHT22;18276;45.520;11.018;2023-05-07T11:50:49;35.10;36.80
31675;DHT22;18276;45.520;11.018;2023-05-07T11:53:17;34.50;37.10
31675;DHT22;18276;45.520;11.018;2023-05-07T11:55:44;33.80;37.80
31675;DHT22;18276;45.520;11.018;2023-05-07T11:58:11;33.50;38.50
31675;DHT22;18276;45.520;11.018;2023-05-07T12:00:38;34.10;38.60
31675;DHT22;18276;45.520;11.018;2023-05-07T12:03:05;34.50;37.80
31675;DHT22;18276;45.520;11.018;2023-05-07T12:05:32;34.80;37.00
31675;DHT22;18276;45.520;11.018;2023-05-07T12:08:00;35.10;36.90
31675;DHT22;18276;45.520;11.018;2023-05-07T12:10:26;35.30;36.20
31675;DHT22;18276;45.520;11.018;2023-05-07T12:12:53;35.10;36.10
31675;DHT22;18276;45.520;11.018;2023-05-07T12:15:22;35.10;36.30
31675;DHT22;18276;45.520;11.018;2023-05-07T12:17:49;34.70;36.70
31675;DHT22;18276;45.520;11.018;2023-05-07T12:20:17;34.30;37.20
31675;DHT22;18276;45.520;11.018;2023-05-07T12:22:44;34.10;37.90
31675;DHT22;18276;45.520;11.018;2023-05-07T12:25:11;34.10;37.80
31675;DHT22;18276;45.520;11.018;2023-05-07T12:27:38;34.40;37.30
31675;DHT22;18276;45.520;11.018;2023-05-07T12:30:05;34.40;37.10
31675;DHT22;18276;45.520;11.018;2023-05-07T12:32:32;34.60;37.20
31675;DHT22;18276;45.520;11.018;2023-05-07T12:35:05;34.50;36.80
31675;DHT22;18276;45.520;11.018;2023-05-07T12:37:32;34.00;37.50
31675;DHT22;18276;45.520;11.018;2023-05-07T12:40:06;33.60;37.50
31675;DHT22;18276;45.520;11.018;2023-05-07T12:42:35;33.30;37.80
31675;DHT22;18276;45.520;11.018;2023-05-07T12:45:12;33.00;38.10
31675;DHT22;18276;45.520;11.018;2023-05-07T12:47:44;32.80;39.10
31675;DHT22;18276;45.520;11.018;2023-05-07T12:50:12;32.30;39.70
31675;DHT22;18276;45.520;11.018;2023-05-07T12:52:39;31.80;40.10
31675;DHT22;18276;45.520;11.018;2023-05-07T12:55:07;31.40;40.60
31675;DHT22;18276;45.520;11.018;2023-05-07T12:57:37;31.00;41.30
31675;DHT22;18276;45.520;11.018;2023-05-07T13:00:04;30.80;42.00
31675;DHT22;18276;45.520;11.018;2023-05-07T13:02:33;30.70;42.40
31675;DHT22;18276;45.520;11.018;2023-05-07T13:05:00;30.90;42.00
31675;DHT22;18276;45.520;11.018;2023-05-07T13:07:27;30.90;41.30
31675;DHT22;18276;45.520;11.018;2023-05-07T13:09:56;30.80;41.80
31675;DHT22;18276;45.520;11.018;2023-05-07T13:12:23;30.60;42.20
31675;DHT22;18276;45.520;11.018;2023-05-07T13:14:50;30.30;42.60
31675;DHT22;18276;45.520;11.018;2023-05-07T13:17:16;30.00;43.30
31675;DHT22;18276;45.520;11.018;2023-05-07T13:19:45;29.70;43.50
31675;DHT22;18276;45.520;11.018;2023-05-07T13:22:12;29.40;44.00
31675;DHT22;18276;45.520;11.018;2023-05-07T13:24:39;29.20;44.10
31675;DHT22;18276;45.520;11.018;2023-05-07T13:27:08;29.00;44.40
31675;DHT22;18276;45.520;11.018;2023-05-07T13:29:35;28.80;45.30
31675;DHT22;18276;45.520;11.018;2023-05-07T13:32:02;28.70;45.80
31675;DHT22;18276;45.520;11.018;2023-05-07T13:34:29;28.60;45.90
31675;DHT22;18276;45.520;11.018;2023-05-07T13:36:56;28.80;45.40
31675;DHT22;18276;45.520;11.018;2023-05-07T13:39:23;28.90;44.90
31675;DHT22;18276;45.520;11.018;2023-05-07T13:41:50;28.70;45.00
31675;DHT22;18276;45.520;11.018;2023-05-07T13:44:16;28.50;45.50
31675;DHT22;18276;45.520;11.018;2023-05-07T13:46:43;28.30;46.00
31675;DHT22;18276;45.520;11.018;2023-05-07T13:49:10;28.40;46.00
31675;DHT22;18276;45.520;11.018;2023-05-07T13:51:39;28.50;45.70
31675;DHT22;18276;45.520;11.018;2023-05-07T13:54:05;28.50;45.20
31675;DHT22;18276;45.520;11.018;2023-05-07T13:56:32;28.60;45.20
31675;DHT22;18276;45.520;11.018;2023-05-07T13:58:59;28.70;45.40
31675;DHT22;18276;45.520;11.018;2023-05-07T14:01:27;28.80;45.00
31675;DHT22;18276;45.520;11.018;2023-05-07T14:03:55;28.70;44.50
31675;DHT22;18276;45.520;11.018;2023-05-07T14:06:22;28.60;44.70
31675;DHT22;18276;45.520;11.018;2023-05-07T14:08:49;28.50;44.80
31675;DHT22;18276;45.520;11.018;2023-05-07T14:11:16;28.40;44.70
31675;DHT22;18276;45.520;11.018;2023-05-07T14:13:43;28.30;45.20
31675;DHT22;18276;45.520;11.018;2023-05-07T14:16:10;28.20;45.20
31675;DHT22;18276;45.520;11.018;2023-05-07T14:18:37;28.10;45.70
31675;DHT22;18276;45.520;11.018;2023-05-07T14:21:05;28.10;45.40
31675;DHT22;18276;45.520;11.018;2023-05-07T14:23:36;27.90;45.90
31675;DHT22;18276;45.520;11.018;2023-05-07T14:26:03;27.80;46.50
31675;DHT22;18276;45.520;11.018;2023-05-07T14:28:30;27.70;46.90
31675;DHT22;18276;45.520;11.018;2023-05-07T14:30:56;27.70;46.90
31675;DHT22;18276;45.520;11.018;2023-05-07T14:33:23;27.70;46.60
31675;DHT22;18276;45.520;11.018;2023-05-07T14:35:51;27.80;46.70
31675;DHT22;18276;45.520;11.018;2023-05-07T14:38:18;27.90;46.90
31675;DHT22;18276;45.520;11.018;2023-05-07T14:40:45;28.00;46.40
31675;DHT22;18276;45.520;11.018;2023-05-07T14:43:12;28.00;46.10
31675;DHT22;18276;45.520;11.018;2023-05-07T14:45:38;28.10;45.80
31675;DHT22;18276;45.520;11.018;2023-05-07T14:48:06;28.00;45.70
31675;DHT22;18276;45.520;11.018;2023-05-07T14:50:33;28.00;46.40
31675;DHT22;18276;45.520;11.018;2023-05-07T14:52:59;28.10;46.40
31675;DHT22;18276;45.520;11.018;2023-05-07T14:55:26;28.30;46.10
31675;DHT22;18276;45.520;11.018;2023-05-07T14:57:55;28.40;46.10
31675;DHT22;18276;45.520;11.018;2023-05-07T15:00:22;28.60;45.10
31675;DHT22;18276;45.520;11.018;2023-05-07T15:02:49;28.80;45.00
31675;DHT22;18276;45.520;11.018;2023-05-07T15:05:16;28.80;45.20
31675;DHT22;18276;45.520;11.018;2023-05-07T15:07:44;28.80;45.70
31675;DHT22;18276;45.520;11.018;2023-05-07T15:10:11;28.80;45.90
31675;DHT22;18276;45.520;11.018;2023-05-07T15:12:38;28.70;45.90
31675;DHT22;18276;45.520;11.018;2023-05-07T15:15:05;28.60;46.60
31675;DHT22;18276;45.520;11.018;2023-05-07T15:17:33;28.60;46.90
31675;DHT22;18276;45.520;11.018;2023-05-07T15:20:00;28.40;47.30
31675;DHT22;18276;45.520;11.018;2023-05-07T15:22:28;28.20;47.60
31675;DHT22;18276;45.520;11.018;2023-05-07T15:24:55;28.00;48.00
31675;DHT22;18276;45.520;11.018;2023-05-07T15:27:23;28.00;48.70
31675;DHT22;18276;45.520;11.018;2023-05-07T15:29:50;27.80;48.90
31675;DHT22;18276;45.520;11.018;2023-05-07T15:32:17;27.70;49.30
31675;DHT22;18276;45.520;11.018;2023-05-07T15:34:44;27.50;49.40
31675;DHT22;18276;45.520;11.018;2023-05-07T15:37:12;27.30;49.90
31675;DHT22;18276;45.520;11.018;2023-05-07T15:39:39;27.30;50.40